Time;durP1;ratioP1;P1;durP2;ratioP2;P2;SDS_P1;SDS_P2;PMS_P1;PMS_P2;Temp;Humidity;BMP_temperature;BMP_pressure;BME280_temperature;BME280_humidity;BME280_pressure;Samples;Min_cycle;Max_cycle;Signal;HPM_P1;HPM_P2
2021/12/04 00:01:11;;;;;;;;;;;;;;;8.60;75.78;94563.03;5054363;28;1910;-52
2021/12/04 00:03:38;;;;;;;;;;;;;;;8.68;74.97;94557.72;5054849;28;1100;-52
2021/12/04 00:06:10;;;;;;;;;;;;;;;8.72;75.12;94556.38;5054322;28;1096;-52
2021/12/04 00:08:36;;;;;;;;;;;;;;;8.70;75.11;94558.38;5054772;28;1021;-52
2021/12/04 00:11:03;;;;;;;;;;;;;;;8.66;75.21;94557.06;5054211;28;1040;-52
2021/12/04 00:13:29;;;;;;;;;;;;;;;8.69;75.43;94556.75;5054359;28;966;-52
2021/12/04 00:15:55;;;;;;;;;;;;;;;8.68;75.17;94557.72;5054565;28;1005;-52
2021/12/04 00:18:23;;;;;;;;;;;;;;;8.63;75.19;94562.69;5054712;28;1304;-52
2021/12/04 00:20:49;;;;;;;;;;;;;;;8.57;74.94;94555.38;5053941;28;1997;-52
2021/12/04 00:23:15;;;;;;;;;;;;;;;8.52;75.31;94550.53;5054569;28;1044;-52
2021/12/04 00:25:41;;;;;;;;;;;;;;;8.59;75.17;94556.03;5054194;28;1101;-52
2021/12/04 00:28:07;;;;;;;;;;;;;;;8.57;75.22;94558.03;5053992;28;1986;-52
2021/12/04 00:30:34;;;;;;;;;;;;;;;8.43;75.50;94558.69;5054203;28;1894;-52
2021/12/04 00:33:03;;;;;;;;;;;;;;;8.39;75.86;94545.63;5053597;28;1065;-52
2021/12/04 00:51:32;;;;;;;;;;;;;;;8.27;76.08;94530.13;5053744;28;1033;-52
2021/12/04 00:53:58;;;;;;;;;;;;;;;8.32;75.59;94536.63;5054044;28;1048;-52
2021/12/04 00:56:24;;;;;;;;;;;;;;;8.35;75.43;94538.16;5053400;28;1129;-52
2021/12/04 00:58:50;;;;;;;;;;;;;;;8.49;74.72;94526.06;5053863;28;1983;-52
2021/12/04 01:01:17;;;;;;;;;;;;;;;8.60;74.52;94517.75;5053351;28;1041;-52
2021/12/04 01:03:43;;;;;;;;;;;;;;;8.44;74.25;94521.19;5054057;28;1036;-52
2021/12/04 01:06:09;;;;;;;;;;;;;;;8.34;74.77;94526.63;5053331;28;1049;-52
2021/12/04 01:08:35;;;;;;;;;;;;;;;8.35;74.65;94530.97;5053934;28;982;-51
2021/12/04 01:11:02;;;;;;;;;;;;;;;8.38;74.64;94545.78;5053193;28;1035;-52
2021/12/04 01:13:29;;;;;;;;;;;;;;;8.28;74.57;94532.63;5053684;28;1044;-52
2021/12/04 01:15:55;;;;;;;;;;;;;;;8.20;75.21;94535.28;5053695;28;1038;-52
2021/12/04 01:18:21;;;;;;;;;;;;;;;8.13;75.59;94524.41;5053428;28;1170;-52
2021/12/04 01:20:47;;;;;;;;;;;;;;;8.20;75.34;94532.59;5053043;28;1909;-52
2021/12/04 01:23:15;;;;;;;;;;;;;;;8.19;75.08;94529.13;5053222;28;1018;-52
2021/12/04 01:25:42;;;;;;;;;;;;;;;8.23;74.86;94537.59;5052969;28;1242;-52
2021/12/04 01:28:08;;;;;;;;;;;;;;;8.25;75.01;94540.94;5053247;28;990;-52
2021/12/04 01:30:34;;;;;;;;;;;;;;;8.25;74.90;94558.75;5053282;28;1041;-52
2021/12/04 01:33:01;;;;;;;;;;;;;;;8.31;74.36;94568.75;5052963;28;1026;-52
2021/12/04 01:35:27;;;;;;;;;;;;;;;8.31;74.29;94569.59;5053215;28;1021;-52
2021/12/04 01:37:53;;;;;;;;;;;;;;;8.32;74.11;94560.59;5052809;28;1113;-52
2021/12/04 01:40:19;;;;;;;;;;;;;;;8.23;74.56;94572.22;5053124;28;1983;-52
2021/12/04 01:42:45;;;;;;;;;;;;;;;8.24;74.49;94573.06;5052555;28;1027;-52
2021/12/04 01:45:12;;;;;;;;;;;;;;;8.25;74.34;94562.22;5052893;28;1056;-52
2021/12/04 01:47:38;;;;;;;;;;;;;;;8.16;74.39;94565.88;5052493;28;1073;-52
2021/12/04 01:50:05;;;;;;;;;;;;;;;8.29;73.86;94560.94;5053016;28;1024;-52
2021/12/04 01:52:31;;;;;;;;;;;;;;;8.17;73.22;94559.56;5052825;28;990;-52
2021/12/04 01:54:57;;;;;;;;;;;;;;;8.04;74.45;94552.00;5052934;28;982;-52
2021/12/04 01:57:24;;;;;;;;;;;;;;;8.09;74.62;94536.38;5052370;28;1010;-52
2021/12/04 01:59:50;;;;;;;;;;;;;;;8.18;74.36;94534.59;5052832;28;1910;-52
2021/12/04 02:02:16;;;;;;;;;;;;;;;8.10;74.76;94538.06;5052313;28;1025;-52
2021/12/04 02:04:43;;;;;;;;;;;;;;;8.13;74.34;94534.25;5052920;28;1047;-52
2021/12/04 02:07:10;;;;;;;;;;;;;;;8.15;74.49;94543.72;5052500;28;962;-52
2021/12/04 02:09:36;;;;;;;;;;;;;;;7.98;75.19;94544.66;5052593;28;1042;-52
2021/12/04 02:12:05;;;;;;;;;;;;;;;7.87;76.00;94555.59;5051938;28;1061;-52
2021/12/04 02:14:32;;;;;;;;;;;;;;;7.78;76.19;94555.56;5052783;28;1032;-52
2021/12/04 02:16:59;;;;;;;;;;;;;;;7.87;76.13;94552.94;5052197;28;1088;-52
2021/12/04 02:19:25;;;;;;;;;;;;;;;7.77;76.22;94555.72;5052362;28;1922;-52
2021/12/04 02:21:51;;;;;;;;;;;;;;;7.84;74.93;94551.44;5052322;28;966;-52
2021/12/04 02:24:17;;;;;;;;;;;;;;;7.63;75.39;94549.16;5052403;28;1021;-52
2021/12/04 02:26:43;;;;;;;;;;;;;;;7.53;75.82;94543.09;5052121;28;1691;-52
2021/12/04 02:29:10;;;;;;;;;;;;;;;7.56;76.08;94545.47;5051244;28;987;-52
2021/12/04 02:31:36;;;;;;;;;;;;;;;7.66;75.83;94542.69;5052446;28;1046;-52
2021/12/04 02:34:02;;;;;;;;;;;;;;;7.52;76.29;94538.78;5052481;28;966;-52
2021/12/04 02:36:28;;;;;;;;;;;;;;;7.59;75.75;94535.34;5052361;28;1014;-52
2021/12/04 02:38:54;;;;;;;;;;;;;;;7.72;74.97;94532.25;5052312;28;1922;-52
2021/12/04 02:41:20;;;;;;;;;;;;;;;7.71;75.07;94532.41;5051932;28;1173;-52
2021/12/04 02:43:47;;;;;;;;;;;;;;;7.65;75.31;94535.72;5052146;28;1110;-52
2021/12/04 02:46:14;;;;;;;;;;;;;;;7.65;75.47;94535.72;5052074;28;1254;-52
2021/12/04 02:48:44;;;;;;;;;;;;;;;7.57;76.32;94539.13;5052254;28;986;-52
2021/12/04 02:51:10;;;;;;;;;;;;;;;7.50;76.21;94528.31;5052114;28;1964;-52
2021/12/04 02:53:37;;;;;;;;;;;;;;;7.46;76.32;94540.25;5051881;28;1032;-52
2021/12/04 02:56:05;;;;;;;;;;;;;;;7.57;75.67;94542.66;5053423;28;985;-52
2021/12/04 02:58:32;;;;;;;;;;;;;;;7.46;75.96;94542.91;5055721;28;977;-52
2021/12/04 03:01:00;;;;;;;;;;;;;;;7.46;76.21;94540.25;5056217;28;1910;-52
2021/12/04 03:03:26;;;;;;;;;;;;;;;7.39;76.80;94540.03;5055868;28;978;-52
2021/12/04 03:05:53;;;;;;;;;;;;;;;7.35;77.03;94541.34;5056068;28;1050;-52
2021/12/04 03:08:19;;;;;;;;;;;;;;;7.46;76.31;94542.91;5055274;28;1221;-52
2021/12/04 03:10:47;;;;;;;;;;;;;;;7.37;77.12;94542.00;5055609;28;1114;-52
2021/12/04 03:13:15;;;;;;;;;;;;;;;7.40;76.48;94535.56;5055273;28;1217;-52
2021/12/04 03:15:44;;;;;;;;;;;;;;;7.43;76.45;94537.88;5056223;28;965;-52
2021/12/04 03:18:10;;;;;;;;;;;;;;;7.38;76.37;94537.50;5055450;28;1222;-52
2021/12/04 03:20:42;;;;;;;;;;;;;;;7.41;76.37;94539.88;5055722;28;1902;-52
2021/12/04 03:23:15;;;;;;;;;;;;;;;7.24;76.87;94545.06;5055152;28;1033;-52
2021/12/04 03:25:43;;;;;;;;;;;;;;;7.30;77.00;94540.97;5055678;28;1049;-52
2021/12/04 03:28:12;;;;;;;;;;;;;;;7.39;76.67;94542.69;5055417;28;986;-52
2021/12/04 03:41:06;;;;;;;;;;;;;;;7.06;77.16;94546.97;5054886;28;1969;-52
2021/12/04 03:43:32;;;;;;;;;;;;;;;7.04;77.22;94549.75;5055231;28;1059;-52
2021/12/04 03:46:01;;;;;;;;;;;;;;;7.03;77.64;94548.06;5055478;28;969;-52
2021/12/04 03:49:12;;;;;;;;;;;;;;;7.13;77.02;94547.16;5055004;28;977;-52
2021/12/04 03:51:14;;;;;;;;;;;;;;;7.20;76.64;94554.34;5044746;28;1453;-52
2021/12/04 03:53:40;;;;;;;;;;;;;;;7.16;76.94;94558.31;5054655;28;1038;-52
2021/12/04 03:56:06;;;;;;;;;;;;;;;7.10;77.05;94548.31;5054989;28;970;-52
2021/12/04 03:58:33;;;;;;;;;;;;;;;7.05;77.19;94547.94;5054950;28;1036;-51
2021/12/04 04:00:59;;;;;;;;;;;;;;;6.99;77.71;94553.88;5055116;28;1914;-52
2021/12/04 04:03:27;;;;;;;;;;;;;;;7.00;77.73;94550.22;5054487;28;1029;-52
2021/12/04 04:05:53;;;;;;;;;;;;;;;7.14;77.17;94543.53;5055255;28;1005;-52
2021/12/04 04:08:20;;;;;;;;;;;;;;;7.20;76.38;94553.53;5054656;28;1004;-52
2021/12/04 04:10:48;;;;;;;;;;;;;;;7.14;76.36;94560.31;5054880;28;1033;-52
2021/12/04 04:13:14;;;;;;;;;;;;;;;7.14;77.02;94560.31;5054263;28;1034;-52
2021/12/04 04:15:40;;;;;;;;;;;;;;;7.19;75.91;94563.34;5054994;28;1054;-52
2021/12/04 04:18:06;;;;;;;;;;;;;;;7.18;75.63;94559.00;5054412;28;1170;-51
2021/12/04 04:20:33;;;;;;;;;;;;;;;7.22;75.49;94557.69;5054684;28;1910;-52
2021/12/04 04:22:59;;;;;;;;;;;;;;;7.33;75.25;94558.44;5054727;28;1049;-52
2021/12/04 04:25:25;;;;;;;;;;;;;;;7.30;75.21;94558.75;5054328;28;1126;-52
2021/12/04 04:27:51;;;;;;;;;;;;;;;7.33;75.04;94561.09;5054128;28;1109;-52
2021/12/04 04:30:18;;;;;;;;;;;;;;;7.36;74.57;94566.97;5054061;28;982;-52
2021/12/04 04:32:47;;;;;;;;;;;;;;;7.26;75.24;94566.19;5054059;28;1076;-52
2021/12/04 04:35:19;;;;;;;;;;;;;;;7.18;75.37;94563.50;5054090;28;1041;-52
2021/12/04 05:02:28;;;;;;;;;;;;;;;7.21;74.41;94579.16;5054039;28;1056;-52
2021/12/04 05:10:17;;;;;;;;;;;;;;;7.27;74.23;94575.03;5053574;28;958;-52
2021/12/04 05:13:17;;;;;;;;;;;;;;;7.16;74.01;94586.75;5053226;28;1034;-52
2021/12/04 05:20:52;;;;;;;;;;;;;;;7.08;73.39;94587.50;5052871;28;1986;-51
2021/12/04 05:23:18;;;;;;;;;;;;;;;6.98;73.99;94589.41;5053301;28;1042;-52
2021/12/04 05:25:44;;;;;;;;;;;;;;;6.94;74.23;94590.69;5052993;28;1106;-52
2021/12/04 05:28:10;;;;;;;;;;;;;;;6.99;73.37;94597.22;5053371;28;1044;-53
2021/12/04 05:30:36;;;;;;;;;;;;;;;7.04;73.45;94596.78;5053173;28;1001;-53
2021/12/04 05:33:03;;;;;;;;;;;;;;;7.01;74.20;94597.06;5053019;28;970;-53
2021/12/04 05:35:29;;;;;;;;;;;;;;;7.01;74.31;94597.06;5053171;28;1083;-53
2021/12/04 05:37:55;;;;;;;;;;;;;;;7.03;73.44;94598.59;5053387;28;970;-53
2021/12/04 05:40:21;;;;;;;;;;;;;;;7.05;73.37;94595.78;5052265;28;1910;-53
2021/12/04 05:42:47;;;;;;;;;;;;;;;7.18;72.90;94606.84;5053194;28;962;-53
2021/12/04 05:45:37;;;;;;;;;;;;;;;7.28;72.36;94601.44;5052564;28;1221;-53
2021/12/04 05:48:09;;;;;;;;;;;;;;;7.14;72.50;94602.00;5053105;28;957;-53
2021/12/04 05:55:27;;;;;;;;;;;;;;;7.03;72.89;94603.06;5052572;28;1048;-53
2021/12/04 05:57:53;;;;;;;;;;;;;;;7.11;72.67;94608.44;5052797;28;1028;-53
2021/12/04 06:00:21;;;;;;;;;;;;;;;7.12;72.40;94610.13;5052292;28;1918;-53
2021/12/04 06:02:47;;;;;;;;;;;;;;;7.10;72.75;94609.44;5052635;28;1335;-53
2021/12/04 06:05:14;;;;;;;;;;;;;;;7.11;73.44;94613.75;5051241;28;997;-53
2021/12/04 06:07:40;;;;;;;;;;;;;;;7.15;72.55;94612.50;5052668;28;1973;-53
2021/12/04 06:10:06;;;;;;;;;;;;;;;7.12;72.80;94617.28;5051898;28;1033;-52
2021/12/04 06:12:32;;;;;;;;;;;;;;;7.16;72.66;94616.81;5052910;28;1063;-53
2021/12/04 06:14:59;;;;;;;;;;;;;;;7.09;73.05;94610.44;5052250;28;1033;-53
2021/12/04 06:17:25;;;;;;;;;;;;;;;7.11;72.91;94624.41;5052866;28;942;-53
2021/12/04 06:22:42;;;;;;;;;;;;;;;7.13;72.67;94619.78;5052548;28;1090;-52
2021/12/04 06:25:13;;;;;;;;;;;;;;;7.11;72.92;94629.72;5052100;28;1004;-52
2021/12/04 06:27:39;;;;;;;;;;;;;;;7.15;73.01;94624.94;5052328;28;1062;-52
2021/12/04 06:30:07;;;;;;;;;;;;;;;7.25;71.81;94633.69;5052261;28;1005;-53
2021/12/04 06:32:36;;;;;;;;;;;;;;;7.11;72.29;94635.03;5056488;28;966;-53
2021/12/04 06:35:06;;;;;;;;;;;;;;;7.08;72.65;94630.03;5056321;28;1068;-53
2021/12/04 06:37:32;;;;;;;;;;;;;;;7.08;72.81;94630.03;5056844;28;977;-53
2021/12/04 06:39:58;;;;;;;;;;;;;;;7.10;72.70;94625.41;5056271;28;1917;-52
2021/12/04 06:42:24;;;;;;;;;;;;;;;7.06;72.79;94623.19;5056325;28;973;-53
2021/12/04 06:44:54;;;;;;;;;;;;;;;6.98;73.29;94630.13;5056189;28;1041;-52
2021/12/04 06:47:20;;;;;;;;;;;;;;;7.00;73.19;94636.13;5056422;28;1046;-53
2021/12/04 06:49:46;;;;;;;;;;;;;;;7.06;72.55;94642.66;5056243;28;1033;-52
2021/12/04 06:52:19;;;;;;;;;;;;;;;7.20;72.12;94649.25;5056063;28;1017;-52
2021/12/04 06:57:20;;;;;;;;;;;;;;;7.68;70.93;94649.78;5056151;28;982;-52
2021/12/04 06:59:48;;;;;;;;;;;;;;;7.90;69.89;94645.78;5055976;28;1995;-52
2021/12/04 07:02:14;;;;;;;;;;;;;;;8.07;69.47;94650.19;5055877;28;946;-52
2021/12/04 07:04:41;;;;;;;;;;;;;;;7.93;68.78;94650.78;5055966;28;1066;-52
2021/12/04 07:07:08;;;;;;;;;;;;;;;7.77;69.65;94660.31;5055763;28;1041;-52
2021/12/04 07:09:35;;;;;;;;;;;;;;;7.58;70.89;94660.53;5055631;28;982;-52
2021/12/04 07:12:01;;;;;;;;;;;;;;;7.62;70.64;94657.38;5055685;28;1013;-52
2021/12/04 07:14:27;;;;;;;;;;;;;;;7.79;69.79;94665.50;5055829;28;1116;-52
2021/12/04 07:16:54;;;;;;;;;;;;;;;7.74;69.53;94667.78;5055852;28;981;-52
2021/12/04 07:19:20;;;;;;;;;;;;;;;7.73;70.11;94666.13;5055587;28;1914;-52
2021/12/04 07:21:46;;;;;;;;;;;;;;;7.78;69.86;94674.50;5055667;28;1017;-52
2021/12/04 07:24:13;;;;;;;;;;;;;;;7.68;69.56;94671.06;5055471;28;1216;-52
2021/12/04 07:26:39;;;;;;;;;;;;;;;7.62;70.45;94675.19;5055344;28;1093;-52
2021/12/04 07:29:05;;;;;;;;;;;;;;;7.71;70.03;94676.91;5055534;28;1022;-52
2021/12/04 07:31:32;;;;;;;;;;;;;;;7.82;70.34;94673.19;5055450;28;1045;-52
2021/12/04 07:33:59;;;;;;;;;;;;;;;7.99;69.07;94682.13;5055407;28;2045;-52
2021/12/04 07:36:25;;;;;;;;;;;;;;;7.79;69.93;94690.28;5055010;28;1049;-52
2021/12/04 07:38:51;;;;;;;;;;;;;;;7.81;70.53;94685.63;5055258;28;1060;-53
2021/12/04 07:41:18;;;;;;;;;;;;;;;7.79;71.07;94692.94;5054558;28;1981;-53
2021/12/04 07:43:44;;;;;;;;;;;;;;;7.85;70.17;94688.00;5055112;28;1038;-53
2021/12/04 07:46:10;;;;;;;;;;;;;;;7.82;71.66;94686.50;5054923;28;1041;-53
2021/12/04 07:48:36;;;;;;;;;;;;;;;7.72;72.70;94677.75;5055216;28;1050;-52
2021/12/04 07:51:02;;;;;;;;;;;;;;;7.74;73.20;94673.09;5054939;28;1035;-53
2021/12/04 07:53:29;;;;;;;;;;;;;;;7.75;71.85;94672.13;5055307;28;1065;-52
2021/12/04 07:55:55;;;;;;;;;;;;;;;7.65;72.83;94672.22;5055069;28;969;-52
2021/12/04 07:58:21;;;;;;;;;;;;;;;7.69;72.67;94670.09;5054820;28;1041;-52
2021/12/04 08:00:47;;;;;;;;;;;;;;;7.58;72.81;94664.00;5054580;28;1902;-53
2021/12/04 08:03:14;;;;;;;;;;;;;;;7.57;73.02;94661.50;5055510;28;954;-53
2021/12/04 08:05:40;;;;;;;;;;;;;;;7.65;72.26;94664.25;5054698;28;957;-53
2021/12/04 08:08:06;;;;;;;;;;;;;;;7.81;72.35;94659.03;5054601;28;993;-53
2021/12/04 08:10:33;;;;;;;;;;;;;;;8.05;71.30;94665.50;5054866;28;1250;-53
2021/12/04 08:13:02;;;;;;;;;;;;;;;8.04;70.99;94665.66;5054669;28;1041;-53
2021/12/04 08:15:28;;;;;;;;;;;;;;;8.01;70.57;94659.66;5054765;28;1052;-52
2021/12/04 08:17:54;;;;;;;;;;;;;;;8.19;70.92;94666.75;5054721;28;1178;-53
2021/12/04 08:20:20;;;;;;;;;;;;;;;8.42;69.95;94675.03;5054066;28;1907;-53
2021/12/04 08:22:47;;;;;;;;;;;;;;;8.63;69.44;94668.47;5054243;28;1057;-53
2021/12/04 08:25:15;;;;;;;;;;;;;;;8.75;70.15;94669.84;5054284;28;1093;-52
2021/12/04 08:27:41;;;;;;;;;;;;;;;8.84;69.01;94660.03;5053963;28;1230;-53
2021/12/04 08:30:10;;;;;;;;;;;;;;;9.07;68.13;94652.25;5054466;28;1036;-53
2021/12/04 08:32:36;;;;;;;;;;;;;;;9.14;68.46;94658.59;5054534;28;977;-53
2021/12/04 08:35:03;;;;;;;;;;;;;;;9.13;67.27;94656.94;5054201;28;1185;-53
2021/12/04 08:37:29;;;;;;;;;;;;;;;8.99;68.84;94651.25;5054040;28;1108;-52
2021/12/04 08:39:55;;;;;;;;;;;;;;;8.76;69.56;94655.53;5054501;28;1906;-52
2021/12/04 08:42:24;;;;;;;;;;;;;;;8.86;69.79;94647.38;5053742;28;986;-52
2021/12/04 08:44:51;;;;;;;;;;;;;;;8.87;70.20;94639.22;5054542;28;1013;-52
2021/12/04 08:47:18;;;;;;;;;;;;;;;9.02;70.09;94630.59;5053750;28;1049;-52
2021/12/04 08:49:44;;;;;;;;;;;;;;;9.09;69.41;94628.94;5054082;28;1048;-52
2021/12/04 08:52:11;;;;;;;;;;;;;;;9.30;68.63;94623.13;5053707;28;1013;-52
2021/12/04 08:54:37;;;;;;;;;;;;;;;9.31;68.75;94625.59;5053482;28;1024;-52
2021/12/04 08:57:04;;;;;;;;;;;;;;;9.38;66.90;94623.94;5053504;28;1001;-53
2021/12/04 08:59:32;;;;;;;;;;;;;;;9.40;68.91;94634.47;5053736;28;1983;-52
2021/12/04 09:01:59;;;;;;;;;;;;;;;9.34;68.73;94625.28;5053541;28;1017;-53
2021/12/04 09:04:28;;;;;;;;;;;;;;;9.12;67.96;94625.94;5053830;28;1048;-53
2021/12/04 09:06:54;;;;;;;;;;;;;;;9.26;68.89;94622.63;5053482;28;1052;-53
2021/12/04 09:09:21;;;;;;;;;;;;;;;9.47;67.96;94614.13;5053900;28;974;-53
2021/12/04 09:11:53;;;;;;;;;;;;;;;9.23;68.56;94616.78;5053080;28;1036;-51
2021/12/04 09:14:22;;;;;;;;;;;;;;;9.29;67.83;94608.94;5053766;28;1032;-50
2021/12/04 09:16:51;;;;;;;;;;;;;;;9.18;67.91;94619.94;5053176;28;982;-50
2021/12/04 09:19:18;;;;;;;;;;;;;;;9.27;66.91;94629.63;5053423;28;1938;-51
2021/12/04 09:21:45;;;;;;;;;;;;;;;9.38;66.70;94613.28;5053034;28;1053;-53
2021/12/04 09:24:15;;;;;;;;;;;;;;;10.05;66.36;94617.53;5053357;28;1018;-52
2021/12/04 09:27:08;;;;;;;;;;;;;;;10.37;63.48;94617.63;5052777;28;1982;-52
2021/12/04 09:30:07;;;;;;;;;;;;;;;10.60;64.03;94621.22;5053582;28;1032;-52
2021/12/04 09:33:15;;;;;;;;;;;;;;;10.40;64.34;94623.47;5053078;28;1009;-52
2021/12/04 10:35:04;;;;;;;;;;;;;;;9.41;68.12;94588.13;5052584;28;993;-53
2021/12/04 10:37:31;;;;;;;;;;;;;;;9.55;67.07;94590.09;5051852;28;1238;-53
2021/12/04 10:39:59;;;;;;;;;;;;;;;9.51;65.58;94587.94;5052568;28;1910;-52
2021/12/04 10:42:32;;;;;;;;;;;;;;;9.42;66.58;94594.28;5051984;28;1012;-53
2021/12/04 10:44:59;;;;;;;;;;;;;;;9.35;66.23;94586.09;5052314;28;1028;-52
2021/12/04 10:47:27;;;;;;;;;;;;;;;9.32;66.27;94587.28;5052222;28;1049;-52
2021/12/04 10:55:20;;;;;;;;;;;;;;;9.47;65.73;94571.44;5052472;28;1079;-52
2021/12/04 11:03:17;;;;;;;;;;;;;;;9.38;66.77;94577.78;5051950;28;989;-52
2021/12/04 11:23:05;;;;;;;;;;;;;;;9.12;66.97;94578.75;5055151;28;1042;-52
2021/12/04 11:25:30;;;;;;;;;;;;;;;9.05;67.09;94585.78;5053136;28;1435;-53
2021/12/04 11:36:21;;;;;;;;;;;;;;;9.45;66.39;94577.94;5055366;28;1022;-53
2021/12/04 11:38:53;;;;;;;;;;;;;;;9.44;66.32;94581.59;5055525;28;1056;-52
2021/12/04 11:41:43;;;;;;;;;;;;;;;9.36;66.37;94574.44;5055243;28;1981;-53
2021/12/04 11:44:13;;;;;;;;;;;;;;;9.31;65.72;94574.91;5054986;28;1004;-53
2021/12/04 11:46:44;;;;;;;;;;;;;;;9.05;66.22;94566.25;5055367;28;1045;-53
2021/12/04 11:49:18;;;;;;;;;;;;;;;9.00;66.84;94572.09;5055003;28;1052;-53
2021/12/04 11:51:55;;;;;;;;;;;;;;;9.04;67.44;94565.44;5055123;28;1095;-53
2021/12/04 11:54:22;;;;;;;;;;;;;;;9.08;66.65;94568.59;5055124;28;962;-53
2021/12/04 11:56:56;;;;;;;;;;;;;;;9.21;67.35;94558.25;5055129;28;1040;-53
2021/12/04 11:59:26;;;;;;;;;;;;;;;9.38;67.00;94564.44;5054833;28;1942;-53
2021/12/04 12:02:00;;;;;;;;;;;;;;;9.34;66.60;94560.44;5055429;28;1038;-53
2021/12/04 12:04:34;;;;;;;;;;;;;;;9.28;65.40;94558.44;5054274;28;1109;-53
2021/12/04 12:07:09;;;;;;;;;;;;;;;9.26;65.99;94557.75;5055084;28;1041;-53
2021/12/04 12:09:37;;;;;;;;;;;;;;;9.42;66.06;94567.59;5054823;28;985;-53
2021/12/04 12:12:05;;;;;;;;;;;;;;;9.40;66.10;94553.59;5054771;28;1033;-53
2021/12/04 12:14:41;;;;;;;;;;;;;;;9.36;65.90;94548.56;5054357;28;1045;-53
2021/12/04 12:17:07;;;;;;;;;;;;;;;9.45;66.34;94552.09;5054955;28;1029;-53
2021/12/04 12:19:38;;;;;;;;;;;;;;;9.55;66.02;94543.91;5053839;28;1902;-53
2021/12/04 12:22:15;;;;;;;;;;;;;;;9.51;65.37;94542.56;5054877;28;1123;-53
2021/12/04 12:36:04;;;;;;;;;;;;;;;9.44;65.42;94544.25;5054347;28;1148;-53
2021/12/04 12:38:46;;;;;;;;;;;;;;;9.36;66.55;94543.25;5054293;28;1053;-53
2021/12/04 12:41:19;;;;;;;;;;;;;;;9.51;66.89;94539.91;5054219;28;1991;-52
2021/12/04 12:43:48;;;;;;;;;;;;;;;9.72;66.65;94542.03;5054354;28;974;-52
2021/12/04 12:46:14;;;;;;;;;;;;;;;9.77;66.60;94535.16;5054332;28;1064;-53
2021/12/04 12:48:42;;;;;;;;;;;;;;;9.72;67.29;94540.19;5054024;28;1021;-53
2021/12/04 12:51:08;;;;;;;;;;;;;;;9.71;66.28;94543.88;5053807;28;1272;-53
2021/12/04 12:53:43;;;;;;;;;;;;;;;9.79;65.92;94540.34;5053991;28;1049;-53
2021/12/04 12:56:10;;;;;;;;;;;;;;;9.88;66.56;94541.13;5053910;28;990;-53
2021/12/04 12:58:53;;;;;;;;;;;;;;;9.80;65.33;94544.66;5053959;28;954;-53
2021/12/04 13:12:58;;;;;;;;;;;;;;;9.30;67.00;94556.44;5053438;28;1211;-53
2021/12/04 13:15:39;;;;;;;;;;;;;;;9.34;67.67;94557.75;5053292;28;1085;-53
2021/12/04 13:18:15;;;;;;;;;;;;;;;9.45;67.44;94553.94;5053333;28;1202;-51
2021/12/04 13:20:41;;;;;;;;;;;;;;;9.48;67.46;94557.06;5053053;28;1975;-52
2021/12/04 13:23:09;;;;;;;;;;;;;;;9.46;67.06;94555.56;5053218;28;1994;-52
2021/12/04 13:25:35;;;;;;;;;;;;;;;9.47;67.23;94557.25;5053244;28;1032;-52
2021/12/04 13:30:27;;;;;;;;;;;;;;;9.41;66.75;94545.44;5052966;28;1223;-52
2021/12/04 13:32:53;;;;;;;;;;;;;;;9.51;67.31;94545.25;5053473;28;1053;-52
2021/12/04 13:35:21;;;;;;;;;;;;;;;9.63;67.42;94541.19;5052685;28;1104;-52
2021/12/04 13:37:47;;;;;;;;;;;;;;;9.62;66.62;94546.69;5053707;28;986;-52
2021/12/04 13:40:15;;;;;;;;;;;;;;;9.55;66.41;94549.22;5051998;28;1914;-51
2021/12/04 13:42:43;;;;;;;;;;;;;;;9.49;66.59;94549.91;5053393;28;1060;-52
2021/12/04 13:45:11;;;;;;;;;;;;;;;9.52;66.78;94547.75;5052643;28;989;-51
2021/12/04 13:47:38;;;;;;;;;;;;;;;9.39;67.36;94542.09;5053176;28;1028;-52
2021/12/04 13:50:08;;;;;;;;;;;;;;;9.34;67.34;94553.25;5052550;28;1069;-53
2021/12/04 13:52:34;;;;;;;;;;;;;;;9.33;67.93;94553.41;5053539;28;1052;-52
2021/12/04 13:55:08;;;;;;;;;;;;;;;9.37;67.07;94549.41;5052608;28;1034;-53
2021/12/04 13:57:38;;;;;;;;;;;;;;;9.36;67.33;94543.25;5053086;28;1245;-53
2021/12/04 14:00:04;;;;;;;;;;;;;;;9.31;67.94;94547.41;5052386;28;1914;-51
2021/12/04 14:02:31;;;;;;;;;;;;;;;9.31;67.65;94550.91;5053056;28;969;-51
2021/12/04 14:05:13;;;;;;;;;;;;;;;9.24;68.04;94549.94;5052356;28;1038;-52
2021/12/04 14:07:46;;;;;;;;;;;;;;;9.17;68.06;94546.28;5052705;28;1029;-52
2021/12/04 14:10:13;;;;;;;;;;;;;;;9.08;68.49;94544.59;5052098;28;1085;-52
2021/12/04 14:12:40;;;;;;;;;;;;;;;9.09;68.56;94541.78;5052992;28;1048;-52
2021/12/04 14:15:07;;;;;;;;;;;;;;;9.03;68.55;94538.91;5052321;28;1044;-51
2021/12/04 14:17:33;;;;;;;;;;;;;;;9.03;68.78;94549.59;5052803;28;1054;-52
2021/12/04 14:20:00;;;;;;;;;;;;;;;9.11;68.52;94546.94;5051692;28;2097;-52
2021/12/04 14:22:26;;;;;;;;;;;;;;;9.14;68.79;94543.91;5041953;28;1056;-52
2021/12/04 14:24:56;;;;;;;;;;;;;;;9.13;69.13;94550.28;5049140;28;1075;-52
2021/12/04 14:27:24;;;;;;;;;;;;;;;9.11;68.71;94546.94;5052209;28;1048;-52
2021/12/04 14:29:52;;;;;;;;;;;;;;;9.08;68.64;94545.41;5051620;28;1093;-52
2021/12/04 14:32:22;;;;;;;;;;;;;;;8.95;69.44;94540.63;5052460;28;1033;-52
2021/12/04 14:34:54;;;;;;;;;;;;;;;8.96;69.56;94539.59;5051611;28;1204;-52
2021/12/04 14:37:20;;;;;;;;;;;;;;;8.96;69.73;94542.25;5052520;28;978;-52
2021/12/04 14:39:47;;;;;;;;;;;;;;;8.97;70.14;94538.59;5051909;28;1906;-52
2021/12/04 14:42:15;;;;;;;;;;;;;;;8.94;70.48;94540.78;5052278;28;1041;-52
2021/12/04 14:44:41;;;;;;;;;;;;;;;8.84;70.75;94532.09;5051996;28;1129;-53
2021/12/04 14:47:09;;;;;;;;;;;;;;;8.88;70.69;94533.41;5052311;28;982;-52
2021/12/04 14:49:38;;;;;;;;;;;;;;;8.90;70.52;94532.25;5052162;28;1092;-51
2021/12/04 14:52:04;;;;;;;;;;;;;;;8.91;70.51;94533.09;5052892;28;1967;-52
2021/12/04 14:54:32;;;;;;;;;;;;;;;8.87;70.68;94537.09;5055944;28;1029;-52
2021/12/04 14:56:59;;;;;;;;;;;;;;;8.91;70.45;94535.75;5055957;28;1087;-52
2021/12/04 14:59:27;;;;;;;;;;;;;;;8.94;70.35;94533.59;5055604;28;1910;-52
2021/12/04 15:01:53;;;;;;;;;;;;;;;9.02;70.23;94543.44;5055677;28;1072;-52
2021/12/04 15:04:19;;;;;;;;;;;;;;;9.02;70.04;94543.44;5055642;28;954;-52
2021/12/04 15:06:46;;;;;;;;;;;;;;;9.02;69.84;94545.28;5055996;28;979;-52
2021/12/04 15:09:15;;;;;;;;;;;;;;;9.00;70.09;94548.09;5055453;28;1064;-52
2021/12/04 15:11:43;;;;;;;;;;;;;;;8.99;70.43;94549.94;5055596;28;1053;-52
2021/12/04 15:14:10;;;;;;;;;;;;;;;9.02;70.21;94551.44;5055864;28;982;-52
2021/12/04 15:16:40;;;;;;;;;;;;;;;8.98;70.29;94550.09;5055732;28;990;-52
2021/12/04 15:19:13;;;;;;;;;;;;;;;8.98;70.29;94547.44;5055264;28;1246;-52
2021/12/04 15:21:43;;;;;;;;;;;;;;;8.96;70.50;94549.44;5055401;28;1997;-52
2021/12/04 15:24:12;;;;;;;;;;;;;;;8.92;70.58;94556.09;5055755;28;1119;-52
2021/12/04 15:26:42;;;;;;;;;;;;;;;8.88;71.24;94560.06;5055314;28;1280;-52
2021/12/04 15:29:14;;;;;;;;;;;;;;;8.83;71.50;94565.91;5055379;28;1117;-52
2021/12/04 15:31:40;;;;;;;;;;;;;;;8.87;72.04;94564.56;5055222;28;1084;-52
2021/12/04 15:34:06;;;;;;;;;;;;;;;8.92;71.47;94564.09;5055583;28;1052;-52
2021/12/04 15:36:40;;;;;;;;;;;;;;;8.90;71.84;94552.78;5055084;28;1016;-52
2021/12/04 15:39:11;;;;;;;;;;;;;;;8.98;71.05;94550.94;5055370;28;936;-52
2021/12/04 15:54:45;;;;;;;;;;;;;;;8.94;73.18;94560.25;5054927;28;1042;-51
2021/12/04 15:57:14;;;;;;;;;;;;;;;9.01;72.87;94554.25;5054672;28;1058;-52
2021/12/04 15:59:45;;;;;;;;;;;;;;;8.99;73.03;94555.28;5055103;28;1910;-52
2021/12/04 16:02:13;;;;;;;;;;;;;;;8.97;72.78;94562.59;5054374;28;1105;-52
2021/12/04 16:04:39;;;;;;;;;;;;;;;8.99;73.06;94570.41;5054850;28;1040;-51
2021/12/04 16:07:06;;;;;;;;;;;;;;;8.90;73.48;94574.91;5054728;28;1037;-52
2021/12/04 16:09:34;;;;;;;;;;;;;;;8.92;72.85;94572.09;5055060;28;1017;-51
2021/12/04 16:12:03;;;;;;;;;;;;;;;8.83;73.27;94570.41;5054222;28;1063;-51
2021/12/04 16:14:30;;;;;;;;;;;;;;;8.70;73.40;94570.88;5054785;28;1017;-51
2021/12/04 16:16:56;;;;;;;;;;;;;;;8.65;73.55;94566.06;5054570;28;981;-51
2021/12/04 16:19:22;;;;;;;;;;;;;;;8.52;73.83;94565.69;5054292;28;1182;-51
2021/12/04 16:21:48;;;;;;;;;;;;;;;8.53;74.02;94562.84;5054151;28;1098;-51
2021/12/04 16:24:14;;;;;;;;;;;;;;;8.57;73.91;94558.88;5054726;28;978;-51
2021/12/04 16:26:41;;;;;;;;;;;;;;;8.65;73.49;94551.88;5053928;28;1113;-51
2021/12/04 16:29:12;;;;;;;;;;;;;;;8.67;73.12;94550.75;5054406;28;1380;-52
2021/12/04 16:37:30;;;;;;;;;;;;;;;8.25;75.35;94553.41;5054263;28;1003;-51
2021/12/04 16:39:41;;;;;;;;;;;;;;;8.15;75.86;94548.22;5054055;28;1906;-51
2021/12/04 16:42:09;;;;;;;;;;;;;;;8.10;75.77;94550.53;5053266;28;1586;-51
2021/12/04 16:44:35;;;;;;;;;;;;;;;8.02;75.41;94546.00;5054512;28;1045;-51
2021/12/04 16:47:04;;;;;;;;;;;;;;;7.93;75.75;94549.63;5053961;28;1032;-51